createdAt,value
2023-08-03T00:04:15.786Z,53.06
2023-08-03T00:09:07.556Z,52.88
2023-08-03T00:13:59.436Z,53.00
2023-08-03T00:18:51.193Z,52.94
2023-08-03T00:23:42.947Z,52.99
2023-08-03T00:28:34.633Z,53.21
2023-08-03T00:33:26.568Z,53.28
2023-08-03T00:38:18.395Z,53.05
2023-08-03T00:43:12.373Z,53.06
2023-08-03T00:48:04.215Z,53.39
2023-08-03T00:52:56.014Z,53.32
2023-08-03T00:57:47.854Z,53.33
2023-08-03T01:02:39.775Z,53.32
2023-08-03T01:07:31.611Z,53.54
2023-08-03T01:12:23.494Z,53.48
2023-08-03T01:17:15.406Z,53.56
2023-08-03T01:22:10.151Z,53.80
2023-08-03T01:27:02.775Z,53.56
2023-08-03T01:31:57.702Z,53.86
2023-08-03T01:36:49.503Z,54.06
2023-08-03T01:41:42.935Z,53.99
2023-08-03T01:46:35.071Z,53.87
2023-08-03T01:51:26.877Z,53.85
2023-08-03T01:56:19.783Z,54.12
2023-08-03T02:01:11.596Z,54.14
2023-08-03T02:06:03.510Z,54.05
2023-08-03T02:10:56.280Z,53.93
2023-08-03T02:15:48.067Z,54.37
2023-08-03T02:20:39.793Z,54.35
2023-08-03T02:25:31.607Z,54.03
2023-08-03T02:30:23.333Z,54.50
2023-08-03T02:35:16.099Z,54.50
2023-08-03T02:40:10.337Z,54.71
2023-08-03T02:45:02.284Z,54.67
2023-08-03T02:49:55.477Z,54.55
2023-08-03T02:54:47.491Z,54.54
2023-08-03T02:59:41.328Z,54.58
2023-08-03T03:04:34.836Z,54.72
2023-08-03T03:09:27.743Z,54.63
2023-08-03T03:14:20.823Z,54.23
2023-08-03T03:19:12.643Z,54.51
2023-08-03T03:24:06.516Z,54.56
2023-08-03T03:28:58.405Z,54.65
2023-08-03T03:33:55.888Z,54.53
2023-08-03T03:38:48.271Z,54.27
2023-08-03T03:43:40.282Z,54.33
2023-08-03T03:48:32.174Z,54.60
2023-08-03T03:53:28.539Z,54.73
2023-08-03T03:58:20.668Z,54.79
2023-08-03T04:03:12.762Z,54.60
2023-08-03T04:08:05.774Z,54.84
2023-08-03T04:12:58.412Z,54.37
2023-08-03T04:17:51.237Z,54.48
2023-08-03T04:22:51.216Z,54.27
2023-08-03T04:27:44.909Z,53.67
2023-08-03T04:32:40.574Z,53.47
2023-08-03T04:37:33.289Z,53.75
2023-08-03T04:42:26.497Z,53.56
2023-08-03T04:47:18.375Z,53.78
2023-08-03T04:52:10.679Z,53.50
2023-08-03T04:57:02.491Z,53.91
2023-08-03T05:01:59.016Z,53.65
2023-08-03T05:06:52.362Z,53.80
2023-08-03T05:11:45.892Z,53.90
2023-08-03T05:16:39.099Z,53.83
2023-08-03T05:21:30.986Z,54.16
2023-08-03T05:26:22.655Z,54.45
2023-08-03T05:31:14.541Z,53.91
2023-08-03T05:36:06.363Z,54.14
2023-08-03T05:40:58.087Z,54.58
2023-08-03T05:45:50.575Z,54.05
2023-08-03T05:50:52.977Z,54.06
2023-08-03T05:55:49.335Z,54.17
2023-08-03T06:00:50.869Z,54.20
2023-08-03T06:05:44.350Z,54.09
2023-08-03T06:10:36.259Z,54.45
2023-08-03T06:15:28.028Z,54.63
2023-08-03T06:20:23.437Z,54.79
2023-08-03T06:25:16.902Z,54.50
2023-08-03T06:30:13.987Z,54.60
2023-08-03T06:35:06.165Z,54.79
2023-08-03T06:39:58.125Z,55.18
2023-08-03T06:44:50.794Z,55.01
2023-08-03T06:49:42.565Z,55.02
2023-08-03T06:54:34.251Z,55.19
2023-08-03T06:59:25.939Z,55.29
2023-08-03T07:04:17.817Z,55.62
2023-08-03T07:09:09.545Z,55.39
2023-08-03T07:14:01.204Z,55.46
2023-08-03T07:18:53.005Z,55.56
2023-08-03T07:23:44.793Z,55.58
2023-08-03T07:28:36.443Z,55.70
2023-08-03T07:33:28.146Z,55.97
2023-08-03T07:38:19.858Z,56.03
2023-08-03T07:43:11.664Z,55.88
2023-08-03T07:48:03.625Z,56.25
2023-08-03T07:52:55.480Z,55.86
2023-08-03T07:57:47.224Z,56.25
2023-08-03T08:02:38.969Z,56.28
2023-08-03T08:07:30.758Z,56.06
2023-08-03T08:12:22.435Z,56.05
2023-08-03T08:17:14.615Z,55.92
2023-08-03T08:22:15.766Z,56.03
2023-08-03T08:27:09.517Z,56.31
2023-08-03T08:32:01.842Z,56.15
2023-08-03T08:36:56.688Z,56.35
2023-08-03T08:41:48.463Z,56.46
2023-08-03T08:46:42.802Z,56.35
2023-08-03T09:01:27.232Z,56.19
2023-08-03T09:06:24.327Z,56.40
2023-08-03T09:11:17.065Z,56.09
2023-08-03T09:16:23.751Z,56.29
2023-08-03T09:26:12.850Z,55.99
2023-08-03T09:31:05.825Z,56.09
2023-08-03T09:36:04.183Z,55.99
2023-08-03T09:40:56.086Z,56.67
2023-08-03T09:45:48.044Z,55.09
2023-08-03T09:50:47.640Z,53.51
2023-08-03T09:55:47.224Z,52.84
2023-08-03T10:00:40.232Z,52.22
2023-08-03T10:05:35.106Z,51.82
2023-08-03T10:10:28.314Z,51.56
2023-08-03T10:15:20.380Z,51.53
2023-08-03T10:20:13.156Z,52.00
2023-08-03T10:25:20.667Z,52.78
2023-08-03T10:30:12.477Z,53.10
2023-08-03T10:35:41.513Z,53.17
2023-08-03T10:40:33.312Z,53.31
2023-08-03T10:45:27.698Z,53.47
2023-08-03T10:50:19.532Z,53.47
2023-08-03T10:55:22.935Z,53.72
2023-08-03T11:00:14.974Z,53.64
2023-08-03T11:05:09.484Z,53.53
2023-08-03T11:10:03.442Z,53.63
2023-08-03T11:14:57.177Z,53.50
2023-08-03T11:19:49.076Z,53.70
2023-08-03T11:24:41.267Z,53.71
2023-08-03T11:29:36.989Z,53.68
2023-08-03T11:34:28.827Z,53.68
2023-08-03T11:39:21.259Z,53.44
2023-08-03T11:44:13.015Z,53.78
2023-08-03T11:49:05.124Z,53.69
2023-08-03T11:53:56.859Z,53.82
2023-08-03T11:58:48.590Z,53.55
2023-08-03T12:03:40.657Z,53.53
2023-08-03T12:08:45.122Z,53.71
2023-08-03T12:13:39.149Z,53.26
2023-08-03T12:18:31.400Z,53.38
2023-08-03T12:23:23.334Z,53.13
2023-08-03T12:28:15.502Z,53.28
2023-08-03T12:33:08.692Z,53.40
2023-08-03T12:38:00.528Z,53.26
2023-08-03T12:42:52.328Z,53.08
2023-08-03T12:47:51.884Z,53.37
2023-08-03T12:52:45.036Z,53.01
2023-08-03T12:57:36.748Z,53.14
2023-08-03T13:02:31.657Z,53.04
2023-08-03T13:07:23.549Z,53.27
2023-08-03T13:12:16.009Z,52.71
2023-08-03T13:17:08.243Z,52.83
2023-08-03T13:22:00.257Z,52.79
2023-08-03T13:26:51.960Z,52.96
2023-08-03T13:31:44.673Z,53.14
2023-08-03T13:36:36.545Z,53.09
2023-08-03T13:41:28.331Z,53.23
2023-08-03T13:46:20.375Z,53.32
2023-08-03T13:51:12.250Z,53.04
2023-08-03T13:56:04.068Z,53.08
2023-08-03T14:00:55.989Z,53.02
2023-08-03T14:25:43.736Z,52.85
2023-08-03T14:30:35.641Z,52.98
2023-08-03T14:40:22.137Z,52.88
2023-08-03T14:45:14.871Z,52.82
2023-08-03T14:55:02.249Z,52.58
2023-08-03T14:59:54.303Z,52.44
2023-08-03T15:04:47.345Z,52.59
2023-08-03T15:09:39.499Z,52.34
2023-08-03T15:14:31.502Z,52.26
2023-08-03T15:19:24.176Z,52.14
2023-08-03T15:24:17.801Z,52.12
2023-08-03T15:29:23.126Z,51.88
2023-08-03T15:34:18.219Z,51.95
2023-08-03T15:39:11.169Z,52.60
2023-08-03T15:44:06.226Z,52.45
2023-08-03T15:53:59.171Z,52.45
2023-08-03T15:58:54.297Z,52.29
2023-08-03T16:03:46.197Z,54.31
2023-08-03T16:08:38.026Z,54.06
2023-08-03T16:13:30.799Z,54.41
2023-08-03T16:18:22.567Z,54.35
2023-08-03T16:23:14.364Z,53.92
2023-08-03T16:28:06.170Z,53.82
2023-08-03T16:32:58.025Z,53.65
2023-08-03T16:37:49.861Z,53.42
2023-08-03T16:42:41.677Z,53.60
2023-08-03T16:47:33.476Z,53.61
2023-08-03T16:52:25.468Z,53.32
2023-08-03T16:57:20.130Z,53.08
2023-08-03T17:02:11.916Z,53.11
2023-08-03T17:07:03.911Z,53.14
2023-08-03T17:11:55.794Z,53.18
2023-08-03T17:16:47.779Z,52.95
2023-08-03T17:21:39.802Z,52.84
2023-08-03T17:26:31.642Z,52.40
2023-08-03T17:31:23.362Z,52.32
2023-08-03T17:36:15.228Z,52.15
2023-08-03T17:41:07.088Z,52.13
2023-08-03T17:45:59.885Z,52.19
2023-08-03T17:50:52.129Z,51.91
2023-08-03T17:55:43.863Z,51.83
2023-08-03T18:00:35.739Z,51.78
2023-08-03T18:05:28.212Z,51.91
2023-08-03T18:10:19.998Z,52.02
2023-08-03T18:15:13.602Z,51.71
2023-08-03T18:20:06.277Z,51.94
2023-08-03T18:24:58.115Z,51.81
2023-08-03T18:29:50.914Z,51.60
2023-08-03T18:34:42.795Z,51.53
2023-08-03T18:39:34.618Z,51.75
2023-08-03T18:44:26.400Z,51.39
2023-08-03T18:49:18.249Z,51.20
2023-08-03T18:54:10.044Z,51.26
2023-08-03T18:59:01.801Z,51.12
2023-08-03T19:03:55.212Z,51.28
2023-08-03T19:08:47.163Z,51.00
2023-08-03T19:13:39.554Z,50.81
2023-08-03T19:18:32.064Z,50.91
2023-08-03T19:23:26.231Z,50.76
2023-08-03T19:28:18.108Z,50.64
2023-08-03T19:33:11.745Z,51.00
2023-08-03T19:38:04.112Z,51.10
2023-08-03T19:42:56.038Z,51.33
2023-08-03T19:47:56.403Z,51.26
2023-08-03T20:07:38.180Z,51.67
2023-08-03T20:17:26.668Z,51.73
2023-08-03T20:22:22.113Z,52.16
2023-08-03T20:27:13.913Z,52.07
2023-08-03T20:32:05.979Z,52.00
2023-08-03T20:36:58.031Z,52.16
2023-08-03T20:51:39.257Z,52.29
2023-08-03T20:56:30.985Z,52.39
2023-08-03T21:01:22.941Z,52.42
2023-08-03T21:06:14.793Z,52.14
2023-08-03T21:11:15.561Z,52.33
2023-08-03T21:16:12.146Z,52.28
2023-08-03T21:21:04.331Z,52.31
2023-08-03T21:25:56.541Z,52.70
2023-08-03T21:30:48.373Z,52.68
2023-08-03T21:35:40.125Z,52.35
2023-08-03T21:40:32.017Z,52.54
2023-08-03T21:45:23.879Z,52.73
2023-08-03T21:50:16.564Z,52.54
2023-08-03T21:55:09.909Z,52.69
2023-08-03T22:00:01.826Z,52.69
2023-08-03T22:04:53.635Z,52.86
2023-08-03T22:09:45.491Z,52.85
2023-08-03T22:14:37.329Z,52.89
2023-08-03T22:19:29.128Z,53.00
2023-08-03T22:24:21.542Z,52.61
2023-08-03T22:29:13.921Z,52.71
2023-08-03T22:34:05.670Z,52.78
2023-08-03T22:38:57.447Z,52.96
2023-08-03T22:43:49.299Z,52.93
2023-08-03T22:48:41.050Z,52.77
2023-08-03T22:53:32.753Z,53.13
2023-08-03T22:58:26.866Z,52.81
2023-08-03T23:03:18.786Z,52.79
2023-08-03T23:08:10.658Z,52.82
2023-08-03T23:13:02.359Z,52.84
2023-08-03T23:17:57.190Z,52.71
2023-08-03T23:22:48.965Z,53.02
2023-08-03T23:27:40.716Z,53.03
2023-08-03T23:32:32.599Z,53.25
2023-08-03T23:37:24.469Z,52.93
2023-08-03T23:42:16.230Z,53.24
2023-08-03T23:47:08.024Z,53.24
2023-08-03T23:51:59.731Z,53.13
2023-08-03T23:56:51.426Z,53.09
